Time;durP1;ratioP1;P1;durP2;ratioP2;P2;SDS_P1;SDS_P2;PMS_P1;PMS_P2;Temp;Humidity;BMP_temperature;BMP_pressure;BME280_temperature;BME280_humidity;BME280_pressure;Samples;Min_cycle;Max_cycle;Signal;HPM_P1;HPM_P2
2022/06/10 00:01:24;;;;;;;5.55;1.90;;;;;;;11.09;100.00;96416.31;5012515;28;24452;-74
2022/06/10 00:03:50;;;;;;;6.57;2.08;;;;;;;11.22;100.00;96417.28;5012398;28;24447;-74
2022/06/10 00:06:16;;;;;;;4.43;1.88;;;;;;;11.19;100.00;96427.84;5012381;28;24567;-73
2022/06/10 00:08:45;;;;;;;3.20;1.88;;;;;;;11.07;100.00;96424.16;5012854;28;24436;-74
2022/06/10 00:11:12;;;;;;;1.77;1.27;;;;;;;10.94;100.00;96430.94;5012334;28;24440;-74
2022/06/10 00:13:46;;;;;;;3.45;1.50;;;;;;;10.90;100.00;96424.22;5012499;28;24476;-74
2022/06/10 00:16:14;;;;;;;2.80;1.53;;;;;;;10.94;100.00;96425.75;5012300;28;24432;-74
2022/06/10 00:18:42;;;;;;;2.30;1.10;;;;;;;10.98;100.00;96426.44;5013015;28;24981;-74
2022/06/10 00:21:11;;;;;;;5.43;1.38;;;;;;;11.02;100.00;96426.16;5012176;28;25039;-74
2022/06/10 00:23:38;;;;;;;3.87;1.50;;;;;;;11.09;100.00;96421.50;5012183;28;24441;-74
2022/06/10 00:26:04;;;;;;;4.40;1.30;;;;;;;11.11;100.00;96420.47;5012203;28;24483;-74
2022/06/10 00:28:31;;;;;;;3.17;1.50;;;;;;;10.97;100.00;96420.38;5012267;28;25088;-74
2022/06/10 00:30:59;;;;;;;4.47;1.60;;;;;;;10.58;100.00;96416.41;5012262;28;24440;-74
2022/06/10 00:33:25;;;;;;;3.22;1.58;;;;;;;10.63;100.00;96424.78;5011735;28;24444;-74
2022/06/10 00:35:52;;;;;;;6.40;1.30;;;;;;;10.80;100.00;96423.91;5011960;28;24494;-74
2022/06/10 00:38:19;;;;;;;4.78;1.38;;;;;;;10.99;100.00;96435.88;5012006;28;24428;-74
2022/06/10 00:40:50;;;;;;;2.40;1.10;;;;;;;10.77;100.00;96428.41;5012215;28;24452;-74
2022/06/10 00:43:18;;;;;;;3.40;1.53;;;;;;;10.50;100.00;96426.34;5011531;28;24523;-74
2022/06/10 00:45:56;;;;;;;2.90;1.38;;;;;;;10.35;100.00;96432.31;5011642;28;24436;-74
2022/06/10 00:48:31;;;;;;;1.80;0.93;;;;;;;10.32;100.00;96435.88;5011856;28;24440;-74
2022/06/10 00:50:59;;;;;;;2.42;1.00;;;;;;;10.34;100.00;96439.22;5012173;28;24432;-74
2022/06/10 00:53:31;;;;;;;2.63;1.20;;;;;;;10.27;100.00;96430.13;5011536;28;24437;-74
2022/06/10 00:56:01;;;;;;;3.00;1.33;;;;;;;10.27;100.00;96432.72;5011569;28;24515;-74
2022/06/10 00:58:34;;;;;;;2.08;1.10;;;;;;;10.25;100.00;96428.47;5011805;28;24437;-74
2022/06/10 01:01:01;;;;;;;1.75;1.08;;;;;;;10.30;100.00;96429.94;5011880;28;24455;-74
2022/06/10 01:03:30;;;;;;;5.20;1.55;;;;;;;10.40;100.00;96433.75;5011447;28;24436;-74
2022/06/10 01:05:57;;;;;;;1.85;1.15;;;;;;;10.44;100.00;96433.59;5011250;28;24440;-74
2022/06/10 01:08:24;;;;;;;3.17;1.30;;;;;;;10.53;100.00;96435.69;5011306;28;24807;-74
2022/06/10 01:11:03;;;;;;;2.97;1.23;;;;;;;10.35;100.00;96438.34;5011391;28;24845;-74
2022/06/10 01:13:42;;;;;;;4.47;1.30;;;;;;;10.26;100.00;96433.59;5011117;28;25053;-74
2022/06/10 01:16:16;;;;;;;3.10;1.30;;;;;;;10.27;100.00;96430.13;5010776;28;24436;-74
2022/06/10 01:18:52;;;;;;;1.17;1.00;;;;;;;10.31;100.00;96426.47;5011458;28;24444;-74
2022/06/10 01:21:39;;;;;;;2.22;1.13;;;;;;;10.39;100.00;96436.41;5011150;28;24507;-74
2022/06/10 01:24:35;;;;;;;1.55;1.10;;;;;;;10.43;100.00;96437.94;5011281;28;24441;-74
2022/06/10 01:27:50;;;;;;;2.47;1.20;;;;;;;10.30;100.00;96432.53;5010724;28;25003;-74
2022/06/10 01:30:23;;;;;;;4.05;1.35;;;;;;;10.06;100.00;96436.34;5011246;28;24442;-74
2022/06/10 01:33:04;;;;;;;2.10;1.40;;;;;;;9.98;100.00;96428.97;5010905;28;24447;-74
2022/06/10 01:35:40;;;;;;;1.92;0.90;;;;;;;10.05;100.00;96434.66;5010295;28;24444;-74
2022/06/10 01:38:15;;;;;;;2.83;1.10;;;;;;;10.07;100.00;96432.84;5010062;28;24455;-74
2022/06/10 01:40:50;;;;;;;2.25;1.02;;;;;;;9.88;100.00;96431.16;5011265;28;24498;-74
2022/06/10 01:43:27;;;;;;;3.20;0.95;;;;;;;9.75;100.00;96440.44;5010699;28;24433;-74
2022/06/10 01:46:05;;;;;;;1.73;1.17;;;;;;;9.66;100.00;96440.88;5010635;28;24440;-73
2022/06/10 01:48:38;;;;;;;2.00;1.30;;;;;;;9.68;100.00;96444.25;5009944;28;24443;-74
2022/06/10 01:51:11;;;;;;;2.13;1.10;;;;;;;9.77;100.00;96445.53;5011032;28;20853;-73
2022/06/10 01:53:43;;;;;;;3.10;1.30;;;;;;;9.88;100.00;96446.69;5010831;28;24448;-74
2022/06/10 01:56:14;;;;;;;2.55;1.27;;;;;;;9.97;100.00;96439.38;5010449;28;24435;-74
2022/06/10 01:58:46;;;;;;;1.95;1.10;;;;;;;10.01;100.00;96438.31;5010364;28;24444;-74
2022/06/10 02:01:18;;;;;;;1.58;0.90;;;;;;;9.93;100.00;96434.34;5010900;28;24503;-74
2022/06/10 02:03:51;;;;;;;1.65;1.10;;;;;;;9.90;100.00;96438.84;5010440;28;24997;-74
2022/06/10 02:06:20;;;;;;;2.38;1.40;;;;;;;9.94;100.00;96451.56;5010448;28;24527;-74
2022/06/10 02:08:53;;;;;;;3.15;1.23;;;;;;;9.96;100.00;96440.28;5010650;28;24830;-74
2022/06/10 02:11:25;;;;;;;2.90;0.90;;;;;;;10.00;100.00;96447.81;5010798;28;24432;-73
2022/06/10 02:13:54;;;;;;;1.58;1.00;;;;;;;10.07;100.00;96444.03;5010683;28;24448;-73
2022/06/10 02:16:25;;;;;;;2.40;1.27;;;;;;;10.18;100.00;96443.50;5010345;28;24443;-74
2022/06/10 02:19:00;;;;;;;3.42;1.08;;;;;;;10.21;100.00;96458.88;5010065;28;24440;-73
2022/06/10 02:21:31;;;;;;;2.05;1.10;;;;;;;10.18;100.00;96446.06;5010333;28;24455;-74
2022/06/10 02:24:04;;;;;;;1.65;1.15;;;;;;;10.19;100.00;96450.31;5010401;28;25004;-74
2022/06/10 02:26:34;;;;;;;2.50;1.33;;;;;;;10.21;100.00;96461.47;5010357;28;24436;-74
2022/06/10 02:29:06;;;;;;;7.17;1.30;;;;;;;10.14;100.00;96453.16;5010239;28;24440;-74
2022/06/10 02:31:37;;;;;;;3.03;1.30;;;;;;;10.22;100.00;96460.53;5010369;28;24436;-74
2022/06/10 02:34:06;;;;;;;2.88;1.25;;;;;;;10.23;100.00;96463.97;5009215;28;24803;-74
2022/06/10 02:36:39;;;;;;;2.42;1.33;;;;;;;10.12;100.00;96462.75;5010045;28;24483;-75
2022/06/10 02:39:13;;;;;;;3.75;1.10;;;;;;;9.99;100.00;96463.44;4991068;28;24525;-74
2022/06/10 02:41:44;;;;;;;5.32;1.40;;;;;;;10.04;100.00;96469.22;5003104;28;24460;-74
2022/06/10 02:44:21;;;;;;;1.85;1.10;;;;;;;10.05;100.00;96463.13;5010197;28;24448;-74
2022/06/10 02:46:56;;;;;;;2.47;1.17;;;;;;;9.92;100.00;96468.06;4995363;28;25016;-74
2022/06/10 02:49:24;;;;;;;3.22;1.00;;;;;;;9.69;100.00;96467.44;5010379;28;24433;-73
2022/06/10 02:51:51;;;;;;;1.15;0.82;;;;;;;9.55;100.00;96467.25;5010220;28;24444;-74
2022/06/10 02:54:21;;;;;;;2.10;1.00;;;;;;;9.37;100.00;96475.88;5010075;28;24447;-74
2022/06/10 02:56:47;;;;;;;1.05;0.80;;;;;;;9.32;100.00;96476.09;5010011;28;20819;-73
2022/06/10 03:02:14;;;;;;;1.67;1.05;;;;;;;9.32;100.00;96483.84;5012852;28;24538;-74
2022/06/10 03:04:47;;;;;;;1.30;0.88;;;;;;;9.30;100.00;96485.66;5013420;28;20657;-73
2022/06/10 03:07:28;;;;;;;3.83;1.27;;;;;;;9.27;100.00;96483.25;5013803;28;20816;-73
2022/06/10 03:10:07;;;;;;;1.10;0.90;;;;;;;9.26;100.00;96486.72;5013645;28;21317;-73
2022/06/10 03:12:39;;;;;;;3.67;1.30;;;;;;;9.29;100.00;96489.16;5012941;28;21369;-73
2022/06/10 03:15:19;;;;;;;3.28;1.17;;;;;;;9.30;100.00;96484.81;5013142;28;24985;-73
2022/06/10 03:17:54;;;;;;;1.90;0.90;;;;;;;9.26;100.00;96489.31;5013300;28;20669;-73
2022/06/10 03:20:28;;;;;;;1.30;0.85;;;;;;;9.25;100.00;96487.63;5007470;28;20687;-73
2022/06/10 03:23:12;;;;;;;1.43;0.87;;;;;;;9.30;100.00;96487.41;5012989;28;24560;-73
2022/06/10 03:25:43;;;;;;;1.85;0.90;;;;;;;9.34;100.00;96491.53;5013347;28;20782;-74
2022/06/10 03:28:13;;;;;;;1.67;0.80;;;;;;;9.36;100.00;96495.72;5013348;28;20777;-73
2022/06/10 03:30:47;;;;;;;1.67;0.90;;;;;;;9.30;100.00;96490.84;5013630;28;24494;-73
2022/06/10 03:33:19;;;;;;;2.45;0.90;;;;;;;9.21;100.00;96499.03;5013643;28;20707;-73
2022/06/10 03:35:49;;;;;;;1.33;0.80;;;;;;;9.17;100.00;96494.91;5013323;28;24451;-74
2022/06/10 03:38:17;;;;;;;2.28;1.17;;;;;;;9.12;100.00;96489.09;5013154;28;24441;-74
2022/06/10 03:40:51;;;;;;;3.38;0.93;;;;;;;9.20;100.00;96500.78;5012964;28;24433;-73
2022/06/10 03:43:18;;;;;;;2.58;1.02;;;;;;;9.22;100.00;96500.69;5013359;28;24436;-73
2022/06/10 03:45:46;;;;;;;3.92;1.25;;;;;;;9.13;100.00;96506.28;5013030;28;24805;-73
2022/06/10 03:48:16;;;;;;;1.77;0.88;;;;;;;9.13;100.00;96508.88;5013004;28;20816;-73
2022/06/10 03:50:44;;;;;;;1.38;0.80;;;;;;;9.09;100.00;96505.59;4997800;28;24445;-73
2022/06/10 03:53:14;;;;;;;1.98;1.00;;;;;;;9.10;100.00;96509.84;5013027;28;24452;-73
2022/06/10 03:55:41;;;;;;;2.53;1.00;;;;;;;9.10;100.00;96506.44;5013100;28;21182;-73
2022/06/10 03:58:09;;;;;;;2.00;0.90;;;;;;;9.15;100.00;96507.03;5013003;28;20774;-74
2022/06/10 04:00:36;;;;;;;1.33;0.80;;;;;;;9.19;100.00;96512.00;5012084;28;21443;-73
2022/06/10 04:03:03;;;;;;;2.80;1.00;;;;;;;9.04;100.00;96524.78;5012939;28;20802;-73
2022/06/10 04:05:30;;;;;;;2.33;0.90;;;;;;;8.98;100.00;96522.50;5012460;28;21354;-73
2022/06/10 04:07:56;;;;;;;4.10;1.25;;;;;;;9.01;100.00;96530.94;5012610;28;21339;-73
2022/06/10 04:10:26;;;;;;;1.70;1.05;;;;;;;9.08;100.00;96534.91;5012787;28;20778;-73
2022/06/10 04:12:53;;;;;;;1.75;1.13;;;;;;;9.20;100.00;96528.38;5012559;28;20736;-72
2022/06/10 04:15:20;;;;;;;4.32;1.30;;;;;;;9.19;100.00;96539.59;5012315;28;25069;-72
2022/06/10 04:17:49;;;;;;;2.45;1.30;;;;;;;9.27;100.00;96532.34;5011782;28;24441;-72
2022/06/10 04:20:20;;;;;;;2.13;1.30;;;;;;;9.38;100.00;96527.53;5012499;28;20846;-73
2022/06/10 04:22:47;;;;;;;2.78;1.33;;;;;;;9.47;100.00;96539.19;5012346;28;24464;-73
2022/06/10 04:25:14;;;;;;;3.05;1.30;;;;;;;9.53;100.00;96536.34;5011957;28;20873;-75
2022/06/10 04:27:42;;;;;;;2.65;1.25;;;;;;;9.70;100.00;96535.53;5012602;28;24437;-73
2022/06/10 04:30:15;;;;;;;2.78;1.60;;;;;;;9.80;100.00;96531.59;5012221;28;24567;-75
2022/06/10 04:32:43;;;;;;;2.72;1.30;;;;;;;9.88;100.00;96529.47;5000526;28;21173;-75
2022/06/10 04:35:09;;;;;;;2.60;1.15;;;;;;;9.92;100.00;96532.75;5011535;28;20824;-74
2022/06/10 04:37:35;;;;;;;3.15;1.63;;;;;;;9.95;100.00;96532.63;5012011;28;24982;-74
2022/06/10 04:40:02;;;;;;;3.88;1.75;;;;;;;10.00;100.00;96538.41;5012153;28;24443;-75
2022/06/10 04:42:28;;;;;;;4.55;1.63;;;;;;;10.01;100.00;96540.09;5011801;28;24507;-74
2022/06/10 04:44:57;;;;;;;3.83;1.50;;;;;;;10.03;100.00;96538.25;5011757;28;24467;-74
2022/06/10 04:47:24;;;;;;;2.80;1.33;;;;;;;10.09;100.00;96537.13;5011632;28;20794;-74
2022/06/10 04:49:50;;;;;;;3.97;1.52;;;;;;;10.15;100.00;96548.00;5012026;28;24436;-75
2022/06/10 04:52:17;;;;;;;3.25;1.58;;;;;;;10.17;100.00;96545.38;5011796;28;24428;-75
2022/06/10 04:54:43;;;;;;;3.83;1.67;;;;;;;10.22;100.00;96540.78;5011457;28;24440;-74
2022/06/10 04:57:10;;;;;;;4.20;1.75;;;;;;;10.33;100.00;96545.47;5011808;28;24472;-74
2022/06/10 04:59:37;;;;;;;2.88;1.52;;;;;;;10.49;100.00;96538.59;5011625;28;24436;-75
2022/06/10 05:02:05;;;;;;;5.20;1.77;;;;;;;10.51;100.00;96544.56;5011435;28;24452;-74
2022/06/10 05:04:31;;;;;;;3.30;1.40;;;;;;;10.44;100.00;96548.38;5011418;28;25031;-74
2022/06/10 05:06:58;;;;;;;7.57;1.83;;;;;;;10.49;100.00;96546.38;5011430;28;24445;-74
2022/06/10 05:09:24;;;;;;;3.27;2.00;;;;;;;10.43;100.00;96551.88;5011713;28;24447;-75
2022/06/10 05:11:51;;;;;;;3.22;1.85;;;;;;;10.57;100.00;96548.59;5011677;28;24829;-75
2022/06/10 05:14:17;;;;;;;4.85;1.98;;;;;;;10.73;100.00;96552.09;5011372;28;24436;-75
2022/06/10 05:16:45;;;;;;;5.97;1.80;;;;;;;10.95;100.00;96548.41;5010080;28;24443;-75
2022/06/10 05:19:13;;;;;;;3.63;1.40;;;;;;;11.05;100.00;96552.16;5011566;28;24530;-75
2022/06/10 05:21:40;;;;;;;3.05;1.33;;;;;;;11.09;100.00;96551.94;5011393;28;25029;-74
2022/06/10 05:24:06;;;;;;;3.75;1.55;;;;;;;11.00;100.00;96549.81;5010169;28;24443;-74
2022/06/10 05:26:33;;;;;;;4.45;1.60;;;;;;;11.18;100.00;96555.81;5010919;28;24432;-74
2022/06/10 05:29:00;;;;;;;4.55;1.60;;;;;;;11.27;100.00;96562.25;5010568;28;24439;-74
2022/06/10 05:31:26;;;;;;;2.97;1.50;;;;;;;11.37;100.00;96556.50;5010049;28;24436;-73
2022/06/10 05:36:38;;;;;;;4.35;1.83;;;;;;;11.58;100.00;96559.69;5007120;28;24436;-74
2022/06/10 05:39:06;;;;;;;4.18;1.73;;;;;;;11.60;100.00;96557.84;5001023;28;24437;-73
2022/06/10 05:44:17;;;;;;;3.92;1.63;;;;;;;11.69;100.00;96563.47;5010363;28;24452;-74
2022/06/10 05:46:44;;;;;;;6.25;2.10;;;;;;;11.92;100.00;96560.47;5010738;28;24961;-73
2022/06/10 05:49:11;;;;;;;4.13;1.73;;;;;;;12.19;100.00;96562.44;5010672;28;25035;-75
2022/06/10 05:51:39;;;;;;;4.03;1.77;;;;;;;12.26;100.00;96568.97;5010901;28;24441;-73
2022/06/10 05:54:05;;;;;;;4.93;2.00;;;;;;;12.42;100.00;96568.94;5010492;28;24879;-73
2022/06/10 05:56:32;;;;;;;4.20;1.90;;;;;;;12.49;100.00;96565.06;5010093;28;24440;-75
2022/06/10 05:58:58;;;;;;;3.50;1.80;;;;;;;12.76;100.00;96570.44;5011698;28;24467;-73
2022/06/10 06:01:25;;;;;;;7.85;1.90;;;;;;;13.07;100.00;96570.25;5008239;28;24498;-74
2022/06/10 06:03:51;;;;;;;6.15;2.35;;;;;;;13.27;100.00;96576.91;5005286;28;24456;-74
2022/06/10 06:06:19;;;;;;;6.13;2.30;;;;;;;13.44;100.00;96583.69;5010433;28;24436;-74
2022/06/10 06:08:48;;;;;;;6.85;1.88;;;;;;;13.71;100.00;96573.31;5010544;28;24448;-74
2022/06/10 06:11:15;;;;;;;5.97;2.33;;;;;;;13.95;100.00;96575.34;5010399;28;24503;-74
2022/06/10 06:13:42;;;;;;;7.20;2.20;;;;;;;13.84;100.00;96578.63;5010357;28;25055;-74
2022/06/10 06:16:12;;;;;;;5.70;2.15;;;;;;;14.14;100.00;96573.22;5010335;28;24441;-75
2022/06/10 06:18:39;;;;;;;5.90;2.00;;;;;;;14.40;100.00;96581.13;5010480;28;25020;-71
2022/06/10 06:21:05;;;;;;;5.10;2.10;;;;;;;14.26;100.00;96588.06;5009553;28;24432;-74
2022/06/10 06:23:31;;;;;;;4.60;2.10;;;;;;;14.38;100.00;96580.38;5010283;28;24515;-73
2022/06/10 06:26:00;;;;;;;5.97;2.20;;;;;;;14.23;100.00;96582.19;5009571;28;24444;-74
2022/06/10 06:28:27;;;;;;;4.50;2.10;;;;;;;14.25;100.00;96580.34;5010742;28;24440;-76
2022/06/10 06:30:53;;;;;;;8.32;2.17;;;;;;;14.31;100.00;96586.91;5011091;28;24456;-76
2022/06/10 06:33:20;;;;;;;7.68;2.40;;;;;;;14.45;100.00;96579.88;5009898;28;24441;-74
2022/06/10 06:35:50;;;;;;;5.60;2.22;;;;;;;14.85;100.00;96582.50;5011820;28;24464;-74
2022/06/10 06:38:17;;;;;;;3.55;1.83;;;;;;;14.95;100.00;96580.13;5014687;28;24444;-74
2022/06/10 06:40:44;;;;;;;8.40;2.42;;;;;;;14.78;100.00;96583.84;5014419;28;24957;-74
2022/06/10 06:43:11;;;;;;;13.13;2.63;;;;;;;14.79;100.00;96579.44;5014099;28;24605;-74
2022/06/10 06:45:40;;;;;;;7.28;1.90;;;;;;;15.29;100.00;96588.25;5012812;28;24518;-74
2022/06/10 06:48:09;;;;;;;6.95;2.17;;;;;;;15.42;98.49;96586.47;5013850;28;24535;-74
2022/06/10 06:50:40;;;;;;;8.65;2.17;;;;;;;15.51;98.83;96585.84;5014466;28;24464;-74
2022/06/10 06:53:06;;;;;;;6.28;2.20;;;;;;;15.51;98.25;96587.63;5014076;28;24981;-75
2022/06/10 06:55:33;;;;;;;7.40;2.30;;;;;;;15.51;100.00;96591.06;5014174;28;24483;-75
2022/06/10 06:58:00;;;;;;;11.35;2.45;;;;;;;15.70;98.97;96593.25;5013970;28;24436;-74
2022/06/10 07:00:28;;;;;;;6.00;2.10;;;;;;;15.87;93.32;96581.59;5012630;28;24441;-75
2022/06/10 07:02:55;;;;;;;5.40;2.10;;;;;;;16.15;91.13;96588.31;5013714;28;25040;-75
2022/06/10 07:05:21;;;;;;;5.55;2.08;;;;;;;16.42;89.28;96593.31;5013495;28;24433;-75
2022/06/10 07:07:48;;;;;;;7.93;2.03;;;;;;;16.47;88.41;96595.59;5013959;28;24489;-74
2022/06/10 07:10:16;;;;;;;5.03;2.03;;;;;;;16.94;87.84;96597.31;5013921;28;24806;-74
2022/06/10 07:12:43;;;;;;;8.47;2.20;;;;;;;17.50;89.51;96597.41;5013969;28;24489;-74
2022/06/10 07:15:11;;;;;;;15.13;2.10;;;;;;;17.83;84.99;96587.88;5012448;28;25004;-74
2022/06/10 07:17:39;;;;;;;5.63;1.92;;;;;;;17.55;84.83;96594.44;5013098;28;24444;-74
2022/06/10 07:20:07;;;;;;;8.18;2.30;;;;;;;17.37;80.14;96587.03;5013567;28;25049;-74
2022/06/10 07:22:34;;;;;;;5.40;2.27;;;;;;;17.65;78.29;96598.03;5012529;28;25099;-74
2022/06/10 07:25:01;;;;;;;7.50;2.20;;;;;;;17.87;82.94;96592.78;5010185;28;24439;-75
2022/06/10 07:27:27;;;;;;;7.95;2.42;;;;;;;17.89;77.16;96585.63;5013130;28;24482;-74
2022/06/10 07:29:54;;;;;;;10.77;2.83;;;;;;;17.79;74.81;96583.84;5013243;28;24443;-74
2022/06/10 07:32:20;;;;;;;6.45;2.30;;;;;;;18.43;75.74;96577.84;5012688;28;24495;-74
2022/06/10 07:34:48;;;;;;;8.40;2.20;;;;;;;18.98;77.05;96589.91;5012539;28;24810;-74
2022/06/10 07:37:14;;;;;;;5.47;1.95;;;;;;;19.20;70.02;96582.84;5013572;28;24439;-75
2022/06/10 07:39:41;;;;;;;4.60;1.80;;;;;;;19.60;67.46;96590.81;5013275;28;24441;-75
2022/06/10 07:42:06;;;;;;;6.53;1.55;;;;;;;19.82;64.63;96584.56;5013073;28;24445;-75
2022/06/10 07:44:37;;;;;;;5.97;2.05;;;;;;;20.15;66.39;96582.56;5013011;28;24451;-74
2022/06/10 07:47:07;;;;;;;3.88;1.92;;;;;;;20.13;57.26;96576.59;5012732;28;24436;-74
2022/06/10 07:49:33;;;;;;;5.25;1.50;;;;;;;20.12;54.42;96581.03;5013675;28;24524;-74
2022/06/10 07:52:03;;;;;;;7.80;1.90;;;;;;;20.36;55.43;96580.66;5013596;28;24614;-74
2022/06/10 07:54:30;;;;;;;4.90;1.70;;;;;;;19.71;54.64;96579.41;5013470;28;24828;-74
2022/06/10 07:56:57;;;;;;;7.68;2.28;;;;;;;19.46;61.34;96583.28;5012759;28;24794;-76
2022/06/10 07:59:23;;;;;;;9.98;2.17;;;;;;;19.87;62.22;96577.09;5013158;28;24448;-75
2022/06/10 08:01:50;;;;;;;5.55;1.95;;;;;;;20.16;57.08;96577.16;5012960;28;25020;-75
2022/06/10 08:04:16;;;;;;;3.87;1.47;;;;;;;20.30;54.68;96574.13;5012644;28;24444;-75
2022/06/10 08:06:47;;;;;;;4.50;1.60;;;;;;;20.93;53.79;96573.75;5012417;28;24432;-75
2022/06/10 08:09:20;;;;;;;6.75;1.88;;;;;;;20.72;52.71;96575.72;5012718;28;24502;-75
2022/06/10 08:11:47;;;;;;;9.85;2.03;;;;;;;20.96;55.88;96577.91;5011091;28;24437;-76
2022/06/10 08:14:13;;;;;;;8.40;1.70;;;;;;;20.19;49.90;96576.91;5013885;28;24842;-75
2022/06/10 08:16:40;;;;;;;4.57;1.83;;;;;;;19.66;51.80;96577.19;4999557;28;24432;-76
2022/06/10 08:19:07;;;;;;;6.53;1.65;;;;;;;20.12;57.08;96578.41;5013047;28;24436;-75
2022/06/10 08:24:20;;;;;;;5.78;2.00;;;;;;;20.06;52.76;96582.41;5012331;28;25008;-75
2022/06/10 08:26:47;;;;;;;5.55;1.70;;;;;;;20.02;55.27;96569.66;5011900;28;24444;-75
2022/06/10 08:29:13;;;;;;;3.47;1.80;;;;;;;20.31;54.80;96575.78;5011685;28;24814;-76
2022/06/10 08:31:40;;;;;;;5.80;1.67;;;;;;;21.08;57.45;96583.84;5011631;28;24448;-75
2022/06/10 08:34:06;;;;;;;4.70;1.83;;;;;;;21.19;53.69;96583.69;5012066;28;24833;-75
2022/06/10 08:36:33;;;;;;;4.78;1.90;;;;;;;21.48;57.24;96579.19;5010852;28;24901;-74
2022/06/10 08:39:00;;;;;;;3.93;1.80;;;;;;;21.63;52.62;96584.00;5010965;28;24534;-74
2022/06/10 08:41:35;;;;;;;10.25;1.92;;;;;;;21.47;61.83;96576.72;5008598;28;24439;-75
2022/06/10 08:44:12;;;;;;;11.55;1.92;;;;;;;21.92;53.67;96582.06;5012021;28;24464;-75
2022/06/10 08:47:05;;;;;;;3.90;1.77;;;;;;;22.09;55.76;96579.59;5011610;28;24432;-74
2022/06/10 08:50:06;;;;;;;5.83;1.90;;;;;;;22.20;54.39;96577.63;5011249;28;24445;-74
2022/06/10 08:52:43;;;;;;;6.97;1.73;;;;;;;22.22;52.51;96575.66;5000358;28;24997;-75
2022/06/10 08:55:23;;;;;;;9.43;1.98;;;;;;;22.11;50.46;96580.31;5011530;28;25044;-74
2022/06/10 08:57:53;;;;;;;8.95;2.40;;;;;;;21.40;51.40;96584.38;5001830;28;24475;-74
2022/06/10 09:00:23;;;;;;;7.00;2.10;;;;;;;21.56;52.60;96582.91;5012135;28;24541;-74
2022/06/10 09:02:57;;;;;;;3.83;1.60;;;;;;;21.02;51.98;96578.19;5011542;28;24464;-74
2022/06/10 09:05:28;;;;;;;3.42;1.58;;;;;;;21.02;52.43;96580.81;5011184;28;24531;-74
2022/06/10 09:07:58;;;;;;;4.93;1.52;;;;;;;21.52;53.55;96577.09;5011370;28;24475;-75
2022/06/10 09:10:31;;;;;;;6.27;1.87;;;;;;;21.69;53.39;96586.03;5013244;28;24456;-74
2022/06/10 09:13:14;;;;;;;2.92;1.60;;;;;;;22.38;49.24;96574.19;5011701;28;24440;-74
2022/06/10 09:15:47;;;;;;;5.78;1.88;;;;;;;22.28;50.56;96581.31;5011993;28;24528;-74
2022/06/10 09:18:23;;;;;;;5.57;2.05;;;;;;;21.89;49.62;96579.72;5012688;28;24498;-74
2022/06/10 09:20:57;;;;;;;3.72;1.70;;;;;;;22.70;52.22;96581.59;5012660;28;24428;-74
2022/06/10 09:23:33;;;;;;;6.13;1.95;;;;;;;22.85;49.97;96576.59;5012673;28;24468;-75
2022/06/10 09:26:10;;;;;;;7.27;1.53;;;;;;;23.09;54.51;96568.03;4996958;28;24810;-74
2022/06/10 09:28:38;;;;;;;5.40;2.17;;;;;;;23.26;50.06;96577.75;5013549;28;24520;-74
2022/06/10 09:31:14;;;;;;;5.30;1.95;;;;;;;23.56;50.36;96571.13;5013826;28;24443;-76
2022/06/10 09:33:48;;;;;;;3.17;1.60;;;;;;;23.85;48.02;96581.41;5013632;28;24452;-75
2022/06/10 09:36:21;;;;;;;4.68;1.70;;;;;;;23.57;47.07;96583.38;5013554;28;24443;-75
2022/06/10 09:38:56;;;;;;;4.57;1.80;;;;;;;23.25;51.21;96580.53;5014189;28;24437;-75
2022/06/10 09:41:34;;;;;;;6.63;2.00;;;;;;;23.47;47.57;96573.88;5013850;28;24447;-75
2022/06/10 09:44:10;;;;;;;4.55;1.95;;;;;;;23.72;45.20;96573.06;5014304;28;24542;-75
2022/06/10 09:46:51;;;;;;;7.03;1.65;;;;;;;23.53;44.85;96584.66;5012166;28;25788;-75
2022/06/10 09:49:35;;;;;;;4.72;1.90;;;;;;;23.62;46.29;96580.25;5013296;28;24440;-76
2022/06/10 09:52:11;;;;;;;2.15;1.23;;;;;;;23.97;46.06;96573.16;5013261;28;24499;-76
2022/06/10 09:55:03;;;;;;;4.75;1.50;;;;;;;24.26;52.68;96570.94;5014776;28;24795;-77
2022/06/10 09:58:01;;;;;;;6.65;2.00;;;;;;;24.08;46.00;96575.53;5013368;28;24436;-76
2022/06/10 10:00:36;;;;;;;4.95;1.63;;;;;;;23.05;45.31;96572.78;5011703;28;24799;-76
2022/06/10 10:03:31;;;;;;;3.67;1.70;;;;;;;22.41;47.51;96569.44;5011105;28;24464;-76
2022/06/10 10:06:11;;;;;;;2.85;1.45;;;;;;;22.84;47.25;96570.47;4996101;28;24428;-75
2022/06/10 10:08:46;;;;;;;5.13;1.80;;;;;;;23.66;48.48;96571.88;5002015;28;24444;-75
2022/06/10 10:11:22;;;;;;;5.93;1.67;;;;;;;23.90;44.17;96568.50;5010834;28;24440;-75
2022/06/10 10:13:59;;;;;;;5.70;1.75;;;;;;;23.87;50.20;96560.88;5010828;28;24447;-75
2022/06/10 10:16:39;;;;;;;2.72;1.45;;;;;;;23.81;50.71;96564.19;5010457;28;24440;-75
2022/06/10 10:19:32;;;;;;;5.22;1.70;;;;;;;24.05;46.58;96560.78;5011178;28;24499;-75
2022/06/10 10:22:22;;;;;;;6.45;1.77;;;;;;;23.80;44.04;96565.16;5010335;28;24455;-75
2022/06/10 10:24:50;;;;;;;4.60;1.50;;;;;;;24.00;50.81;96565.75;5010185;28;24567;-75
2022/06/10 10:27:19;;;;;;;3.85;1.40;;;;;;;23.91;45.45;96564.03;5010816;28;24818;-75
2022/06/10 10:29:49;;;;;;;4.80;1.90;;;;;;;23.00;45.81;96561.88;5010151;28;24482;-75
2022/06/10 10:32:21;;;;;;;3.75;1.50;;;;;;;23.30;46.45;96559.75;5010283;28;24463;-75
2022/06/10 10:34:53;;;;;;;5.65;1.85;;;;;;;22.96;46.30;96554.41;5009928;28;24429;-75
2022/06/10 10:37:22;;;;;;;4.17;1.83;;;;;;;22.82;44.17;96569.78;5010283;28;24440;-74
2022/06/10 10:39:52;;;;;;;4.55;1.60;;;;;;;23.21;47.89;96550.09;5010877;28;24872;-74
2022/06/10 10:42:21;;;;;;;5.10;1.58;;;;;;;23.83;48.99;96556.91;5010851;28;24512;-75
2022/06/10 10:44:53;;;;;;;4.18;1.63;;;;;;;24.10;43.77;96562.94;5010289;28;24904;-74
2022/06/10 10:47:25;;;;;;;3.70;1.48;;;;;;;23.59;43.36;96565.53;5010150;28;24455;-74
2022/06/10 10:49:55;;;;;;;5.22;1.85;;;;;;;23.13;44.06;96556.16;5010604;28;25011;-74
2022/06/10 10:52:26;;;;;;;4.30;1.60;;;;;;;23.87;44.30;96560.06;5010498;28;24444;-74
2022/06/10 10:54:56;;;;;;;3.72;1.63;;;;;;;24.02;47.47;96550.53;5010202;28;24444;-74
2022/06/10 10:57:29;;;;;;;4.93;1.60;;;;;;;24.28;48.34;96554.88;5009957;28;24488;-75
2022/06/10 11:00:04;;;;;;;6.10;1.88;;;;;;;24.42;47.96;96556.94;5010204;28;24487;-74
2022/06/10 11:02:36;;;;;;;4.43;1.70;;;;;;;24.47;45.55;96557.25;5035728;22;24471;-78
2022/06/10 11:05:22;;;;;;;3.28;1.50;;;;;;;24.34;41.36;96549.78;5043722;28;24493;-78
2022/06/10 11:08:11;;;;;;;4.60;1.30;;;;;;;24.50;50.57;96546.34;5032235;28;24439;-77
2022/06/10 11:10:50;;;;;;;5.53;1.50;;;;;;;24.34;51.37;96551.59;5018067;28;25112;-77
2022/06/10 11:13:21;;;;;;;4.15;1.67;;;;;;;24.07;45.62;96558.00;5049975;28;24486;-76
2022/06/10 11:15:48;;;;;;;3.78;1.60;;;;;;;23.97;45.52;96558.13;5077886;22;24478;-74
2022/06/10 11:18:16;;;;;;;2.78;1.25;;;;;;;24.03;44.62;96556.63;5049365;28;24546;-74
2022/06/10 11:20:43;;;;;;;3.80;1.35;;;;;;;23.89;45.65;96551.00;5049422;28;24443;-74
2022/06/10 11:23:12;;;;;;;2.97;1.38;;;;;;;23.91;45.78;96556.94;5053070;28;24443;-74
2022/06/10 11:25:39;;;;;;;2.97;1.38;;;;;;;23.90;44.55;96555.28;5053433;28;24439;-74
2022/06/10 11:28:18;;;;;;;3.88;1.40;;;;;;;23.69;39.68;96554.03;5036690;28;24513;-74
2022/06/10 11:30:48;;;;;;;2.78;1.35;;;;;;;23.84;45.82;96555.09;5038761;28;24450;-74
2022/06/10 11:33:25;;;;;;;3.70;1.50;;;;;;;24.30;52.19;96543.16;5043431;28;25145;-73
2022/06/10 11:36:01;;;;;;;3.10;1.30;;;;;;;24.19;43.68;96543.47;5047396;28;24497;-74
2022/06/10 11:38:30;;;;;;;5.60;1.60;;;;;;;23.96;49.07;96550.34;5035183;28;24836;-74
2022/06/10 11:40:59;;;;;;;5.38;1.45;;;;;;;23.61;42.85;96547.69;5035211;28;24443;-76
2022/06/10 11:43:28;;;;;;;4.28;1.48;;;;;;;23.64;41.80;96541.25;5051193;28;24443;-74
2022/06/10 11:46:01;;;;;;;4.03;1.38;;;;;;;23.45;45.46;96536.22;5034889;28;25003;-74
2022/06/10 11:48:37;;;;;;;3.50;1.17;;;;;;;23.69;46.41;96539.00;5049855;28;24538;-74
2022/06/10 11:51:11;;;;;;;5.40;1.50;;;;;;;23.16;42.24;96538.19;5044409;28;24619;-74
2022/06/10 11:53:44;;;;;;;3.38;1.10;;;;;;;22.94;44.95;96528.97;5033063;28;24511;-75
2022/06/10 12:01:59;;;;;;;3.47;1.35;;;;;;;22.59;45.93;96537.75;5044928;28;24430;-75
2022/06/10 12:04:32;;;;;;;6.50;1.60;;;;;;;22.55;50.27;96528.47;5045499;28;24521;-75